Muscatine, IA (52761)

8:00 AM CDT on July 13, 2014 (GMT -0500)
HADS MISSISSIPPI RIVER AT LOCK & DAM IA US USARMY-COE (MILNI2) Elev 548 ft | 41.43 °N, 91.02 °W | Change Station
Active Advisory: Flood Warning Active Notice: Local Storm Report

Current weather conditions updated 1 hour ago

Overcast
Overcast
68.0 °F
Feels Like 68.0 °F
N
5.0
Wind Variable Wind from West
Gusts 8.0 mph

Today is forecast to be nearly the same temperature as yesterday.

Today
High -- | Low -- °F
--% Chance of Precip.
Yesterday
High -- | Low -- °F
Precip. -- in
5:41 AM 8:37 PM
Full, 98% visible
Pressure 30.00 in
Visibility 10.0 miles
Clouds Overcast 700 ft
Dew Point Not available.
Humidity Not available.
Rainfall 0.66 in
Snow Depth Not available.
UV 1 out of 12
Pollen 2.30 out of 12
Air Quality Not available.
Flu Activity Sporadic
METAR KMUT 131255Z AUTO 29006KT 10SM OVC007 20/19 A3000 RMK AO2

More Conditions Fewer Conditions

Pressure 30.00 in
Visibility 10.0 miles
Clouds Overcast 700 ft
Dew Point Not available.
Humidity Not available.
Rainfall 0.66 in
Snow Depth Not available.
UV 1 out of 12
Pollen 2.30 out of 12
Air Quality Not available.
Flu Activity Sporadic
METAR KMUT 131255Z AUTO 29006KT 10SM OVC007 20/19 A3000 RMK AO2

More Conditions Fewer Conditions

10-Day Weather Forecast

Almanac

Astronomy

Jul. 13, 2014 Rise Set
Actual Time 5:41 AM CDT 8:37 PM CDT
Civil Twilight 5:08 AM CDT 9:10 PM CDT
Nautical Twilight 4:26 AM CDT 9:51 PM CDT
Astronomical Twilight 3:38 AM CDT 10:40 PM CDT
Moon 9:23 PM CDT 7:14 AM CDT
Length of Visible Light 16h 01m
Length of Day
14h 55m
Tomorrow will be 1m 20s shorter.
Full, 98% of the Moon is Illuminated
Today
Full
Jul 18
Last Quarter
Jul 26
New
Aug 3
First Quarter
Aug 10
Full

Today's Extremes

State Highs State Lows

Community

WunderPhotos

Upload Photos

1,733,183 photos uploaded!

Nearby

Snow Depth

Station Depth Elevation
No new snow has been reported.

Earthquake Activity

City Distance Mag. Time & Date
No recent earthquake activity has been reported nearby.
Minimum magnitude displayed is 2.5.

Coastal Water Temperatures

Place Temperature
No Stations Reporting

Nearby Weather Stations

Station Location Temp. Dew Point Humidity Wind Precip. Elev Updated Type
Aledo, IL 68.5 °F 64 °F 86% NNE  at  0.0 mph 0.00 in / hr 735 ft 8:00 AM CDT Rapid Fire
West Central Davenport, Davenport, IA 67.1 °F 65 °F 94% NNW  at  0.0 mph 0.00 in / hr 704 ft 8:00 AM CDT Rapid Fire
Milan, IL 67.3 °F 64 °F 88% WNW  at  0.0 mph 0.00 in / hr 653 ft 8:00 AM CDT Normal
Ridgeview, Davenport, IA 67.6 °F 64 °F 88% WSW  at  0.0 mph - / hr 735 ft 7:53 AM CDT Normal
East Central Davenport, Davenport, IA 66.8 °F 66 °F 97% NW  at  0.0 mph 0.00 in / hr 692 ft 8:00 AM CDT Rapid Fire
Purdy Hill (Ken), Columbus Junction, IA 67.8 °F 68 °F 99% SSW  at  0.0 mph - / hr 656 ft 7:50 AM CDT Normal
Ron Cutkomp, Columbus City, IA 67.6 °F 67 °F 98% WNW  at  3.2 mph - / hr 725 ft 7:50 AM CDT Normal

Show More Stations Show Fewer Stations